Startpagina
METAR-TAF:

METAR-TAF

Vliegvelden :

Aéroport de Paris-Le Bourget

Parijs, Frankrijk

breedte: 48-58N, lengte: 002-27E, hoogte: 66 m

Actueel weer

Dit bericht is 29 minuten geleden gemaakt, om 05:30 UTC
Wind 3 kt uit het noordnoordwesten
Temperatuur 13°C
Vochtigheid 77%
Druk 1020 hPa
Zicht 10 km of meer
geen wolken onder 1500 m en geen cumulonimbus

METAR: LFPB 160530Z AUTO 34003KT CAVOK 13/09 Q1020 NOSIG

Tijdstip: 07:59 (05:59 UTC)

Verwachting

Dit bericht is 59 minuten geleden gemaakt, om 05:00 UTC
Verwachting geldig van 16 om 06 UTC tot 17 om 06 UTC
Wind 5 kt uit het noordnoordoosten
Zicht 10 km of meer
geen wolken onder 1500 m en geen cumulonimbus
Tijdelijke
van 16 om 11 UTC tot 16 om 16 UTC
Wind 5 kt uit het noorden

TAF: LFPB 160500Z 1606/1706 03005KT CAVOK TEMPO 1611/1616 35005KT

Waarnemingen en weersverwachtingen van meer dan 4000 vliegvelden (METAR en TAF).

De beschikbare stations zijn de gele en rode punten op de kaart.

Ga met uw muis naar het station om de naam te zien.

Klik dan om waarnemingen en weersverwachtingen te zien.

kaart wijzigen: klik op de groene knoppen met een zwart kruis om in te zoomen, op de groene knop met een streepje om uit te zoomen of op de groene pijlen voor aangrenzende kaarten.


METAR-TAF: